sensor_id;sensor_type;location;lat;lon;timestamp;temperature;humidity
25983;DHT22;13773;48.868;10.730;2023-12-22T00:01:12;2.50;99.90
25983;DHT22;13773;48.868;10.730;2023-12-22T00:03:41;2.50;99.90
25983;DHT22;13773;48.868;10.730;2023-12-22T00:06:07;2.50;99.90
25983;DHT22;13773;48.868;10.730;2023-12-22T00:08:33;2.50;99.90
25983;DHT22;13773;48.868;10.730;2023-12-22T00:10:58;2.50;99.90
25983;DHT22;13773;48.868;10.730;2023-12-22T00:13:24;2.80;99.90
25983;DHT22;13773;48.868;10.730;2023-12-22T00:15:50;2.90;99.90
25983;DHT22;13773;48.868;10.730;2023-12-22T00:18:16;2.80;99.90
25983;DHT22;13773;48.868;10.730;2023-12-22T00:20:41;2.50;99.90
25983;DHT22;13773;48.868;10.730;2023-12-22T00:23:07;2.50;99.90
25983;DHT22;13773;48.868;10.730;2023-12-22T00:25:33;2.40;99.90
25983;DHT22;13773;48.868;10.730;2023-12-22T00:27:58;2.50;99.90
25983;DHT22;13773;48.868;10.730;2023-12-22T00:30:24;2.40;99.90
25983;DHT22;13773;48.868;10.730;2023-12-22T00:32:50;2.40;99.90
25983;DHT22;13773;48.868;10.730;2023-12-22T00:35:15;2.90;99.90
25983;DHT22;13773;48.868;10.730;2023-12-22T00:37:41;2.30;99.90
25983;DHT22;13773;48.868;10.730;2023-12-22T00:40:07;2.30;99.90
25983;DHT22;13773;48.868;10.730;2023-12-22T00:42:34;2.30;99.90
25983;DHT22;13773;48.868;10.730;2023-12-22T00:45:00;2.30;99.90
25983;DHT22;13773;48.868;10.730;2023-12-22T00:47:26;2.30;99.90
25983;DHT22;13773;48.868;10.730;2023-12-22T00:49:51;2.20;99.90
25983;DHT22;13773;48.868;10.730;2023-12-22T00:52:17;2.20;99.90
25983;DHT22;13773;48.868;10.730;2023-12-22T00:54:43;2.10;99.90
25983;DHT22;13773;48.868;10.730;2023-12-22T00:57:09;2.10;99.90
25983;DHT22;13773;48.868;10.730;2023-12-22T00:59:34;2.10;99.90
25983;DHT22;13773;48.868;10.730;2023-12-22T01:02:00;2.10;99.90
25983;DHT22;13773;48.868;10.730;2023-12-22T01:04:26;2.40;99.90
25983;DHT22;13773;48.868;10.730;2023-12-22T01:06:51;2.20;99.90
25983;DHT22;13773;48.868;10.730;2023-12-22T01:09:18;2.00;99.90
25983;DHT22;13773;48.868;10.730;2023-12-22T01:11:45;2.00;99.90
25983;DHT22;13773;48.868;10.730;2023-12-22T01:14:11;2.00;99.90
25983;DHT22;13773;48.868;10.730;2023-12-22T01:16:39;2.00;99.90
25983;DHT22;13773;48.868;10.730;2023-12-22T01:19:04;2.00;99.90
25983;DHT22;13773;48.868;10.730;2023-12-22T01:21:30;2.00;99.90
25983;DHT22;13773;48.868;10.730;2023-12-22T01:23:56;2.20;99.90
25983;DHT22;13773;48.868;10.730;2023-12-22T01:26:22;2.00;99.90
25983;DHT22;13773;48.868;10.730;2023-12-22T01:28:47;2.00;99.90
25983;DHT22;13773;48.868;10.730;2023-12-22T01:31:13;2.00;99.90
25983;DHT22;13773;48.868;10.730;2023-12-22T01:33:38;1.90;99.90
25983;DHT22;13773;48.868;10.730;2023-12-22T01:36:04;1.90;99.90
25983;DHT22;13773;48.868;10.730;2023-12-22T01:38:30;1.90;99.90
25983;DHT22;13773;48.868;10.730;2023-12-22T01:40:56;1.90;99.90
25983;DHT22;13773;48.868;10.730;2023-12-22T01:43:21;1.90;99.90
25983;DHT22;13773;48.868;10.730;2023-12-22T01:45:57;2.20;99.90
25983;DHT22;13773;48.868;10.730;2023-12-22T01:48:26;1.90;99.90
25983;DHT22;13773;48.868;10.730;2023-12-22T01:50:53;1.90;99.90
25983;DHT22;13773;48.868;10.730;2023-12-22T01:53:20;2.00;99.90
25983;DHT22;13773;48.868;10.730;2023-12-22T01:55:48;1.90;99.90
25983;DHT22;13773;48.868;10.730;2023-12-22T01:58:15;1.90;99.90
25983;DHT22;13773;48.868;10.730;2023-12-22T02:00:40;1.90;99.90
25983;DHT22;13773;48.868;10.730;2023-12-22T02:03:06;2.00;99.90
25983;DHT22;13773;48.868;10.730;2023-12-22T02:05:33;2.30;99.90
25983;DHT22;13773;48.868;10.730;2023-12-22T02:07:59;2.00;99.90
25983;DHT22;13773;48.868;10.730;2023-12-22T02:10:25;2.10;99.90
25983;DHT22;13773;48.868;10.730;2023-12-22T02:12:51;2.30;99.90
25983;DHT22;13773;48.868;10.730;2023-12-22T02:15:16;2.00;99.90
25983;DHT22;13773;48.868;10.730;2023-12-22T02:17:49;1.90;99.90
25983;DHT22;13773;48.868;10.730;2023-12-22T02:20:18;2.00;99.90
25983;DHT22;13773;48.868;10.730;2023-12-22T02:22:43;2.00;99.90
25983;DHT22;13773;48.868;10.730;2023-12-22T02:25:09;2.00;99.90
25983;DHT22;13773;48.868;10.730;2023-12-22T02:27:45;2.00;99.90
25983;DHT22;13773;48.868;10.730;2023-12-22T02:32:59;1.90;99.90
25983;DHT22;13773;48.868;10.730;2023-12-22T02:35:26;2.00;99.90
25983;DHT22;13773;48.868;10.730;2023-12-22T02:37:56;2.00;99.90
25983;DHT22;13773;48.868;10.730;2023-12-22T02:40:22;2.00;99.90
25983;DHT22;13773;48.868;10.730;2023-12-22T02:42:49;2.50;99.90
25983;DHT22;13773;48.868;10.730;2023-12-22T02:45:17;1.90;99.90
25983;DHT22;13773;48.868;10.730;2023-12-22T02:47:43;1.90;99.90
25983;DHT22;13773;48.868;10.730;2023-12-22T02:50:09;1.90;99.90
25983;DHT22;13773;48.868;10.730;2023-12-22T02:52:35;2.00;99.90
25983;DHT22;13773;48.868;10.730;2023-12-22T02:55:02;2.00;99.90
25983;DHT22;13773;48.868;10.730;2023-12-22T02:57:27;2.00;99.90
25983;DHT22;13773;48.868;10.730;2023-12-22T02:59:53;2.00;99.90
25983;DHT22;13773;48.868;10.730;2023-12-22T03:02:19;2.30;99.90
25983;DHT22;13773;48.868;10.730;2023-12-22T03:04:44;2.40;99.90
25983;DHT22;13773;48.868;10.730;2023-12-22T03:07:12;2.10;99.90
25983;DHT22;13773;48.868;10.730;2023-12-22T03:09:38;2.10;99.90
25983;DHT22;13773;48.868;10.730;2023-12-22T03:12:04;2.50;99.90
25983;DHT22;13773;48.868;10.730;2023-12-22T03:14:31;2.10;99.90
25983;DHT22;13773;48.868;10.730;2023-12-22T03:16:59;2.50;99.90
25983;DHT22;13773;48.868;10.730;2023-12-22T03:19:24;2.20;99.90
25983;DHT22;13773;48.868;10.730;2023-12-22T03:21:50;2.30;99.90
25983;DHT22;13773;48.868;10.730;2023-12-22T03:24:16;2.30;99.90
25983;DHT22;13773;48.868;10.730;2023-12-22T03:26:44;2.80;99.90
25983;DHT22;13773;48.868;10.730;2023-12-22T03:29:09;2.40;99.90
25983;DHT22;13773;48.868;10.730;2023-12-22T03:31:35;2.50;99.90
25983;DHT22;13773;48.868;10.730;2023-12-22T03:34:01;2.60;99.90
25983;DHT22;13773;48.868;10.730;2023-12-22T03:36:27;2.60;99.90
25983;DHT22;13773;48.868;10.730;2023-12-22T03:38:52;3.20;99.90
25983;DHT22;13773;48.868;10.730;2023-12-22T03:41:18;3.10;99.90
25983;DHT22;13773;48.868;10.730;2023-12-22T03:43:44;2.70;99.90
25983;DHT22;13773;48.868;10.730;2023-12-22T03:46:09;2.80;99.90
25983;DHT22;13773;48.868;10.730;2023-12-22T03:48:35;2.90;99.90
25983;DHT22;13773;48.868;10.730;2023-12-22T03:51:01;3.20;99.90
25983;DHT22;13773;48.868;10.730;2023-12-22T03:53:26;2.90;99.90
25983;DHT22;13773;48.868;10.730;2023-12-22T03:55:52;3.00;99.90
25983;DHT22;13773;48.868;10.730;2023-12-22T03:58:17;3.20;99.90
25983;DHT22;13773;48.868;10.730;2023-12-22T04:00:43;3.10;99.90
25983;DHT22;13773;48.868;10.730;2023-12-22T04:03:09;3.20;99.90
25983;DHT22;13773;48.868;10.730;2023-12-22T04:05:34;3.30;99.90
25983;DHT22;13773;48.868;10.730;2023-12-22T04:08:00;2.80;99.90
25983;DHT22;13773;48.868;10.730;2023-12-22T04:10:26;2.20;99.90
25983;DHT22;13773;48.868;10.730;2023-12-22T04:12:51;1.10;99.90
25983;DHT22;13773;48.868;10.730;2023-12-22T04:15:17;1.00;99.90
25983;DHT22;13773;48.868;10.730;2023-12-22T04:17:42;0.90;99.90
25983;DHT22;13773;48.868;10.730;2023-12-22T04:20:08;0.90;99.90
25983;DHT22;13773;48.868;10.730;2023-12-22T04:22:34;1.00;99.90
25983;DHT22;13773;48.868;10.730;2023-12-22T04:24:59;1.00;99.90
25983;DHT22;13773;48.868;10.730;2023-12-22T04:27:25;1.80;99.90
25983;DHT22;13773;48.868;10.730;2023-12-22T04:29:51;1.40;99.90
25983;DHT22;13773;48.868;10.730;2023-12-22T04:32:16;1.20;99.90
25983;DHT22;13773;48.868;10.730;2023-12-22T04:34:42;1.50;99.90
25983;DHT22;13773;48.868;10.730;2023-12-22T04:37:08;1.40;99.90
25983;DHT22;13773;48.868;10.730;2023-12-22T04:39:33;1.60;99.90
25983;DHT22;13773;48.868;10.730;2023-12-22T04:41:59;1.80;99.90
25983;DHT22;13773;48.868;10.730;2023-12-22T04:44:24;1.50;99.90
25983;DHT22;13773;48.868;10.730;2023-12-22T04:46:50;1.60;99.90
25983;DHT22;13773;48.868;10.730;2023-12-22T04:49:16;1.60;99.90
25983;DHT22;13773;48.868;10.730;2023-12-22T04:51:42;1.60;99.90
25983;DHT22;13773;48.868;10.730;2023-12-22T04:54:08;1.50;99.90
25983;DHT22;13773;48.868;10.730;2023-12-22T04:56:33;2.00;99.90
25983;DHT22;13773;48.868;10.730;2023-12-22T04:58:59;1.70;99.90
25983;DHT22;13773;48.868;10.730;2023-12-22T05:01:24;1.90;99.90
25983;DHT22;13773;48.868;10.730;2023-12-22T05:03:50;1.80;99.90
25983;DHT22;13773;48.868;10.730;2023-12-22T05:06:16;2.00;99.90
25983;DHT22;13773;48.868;10.730;2023-12-22T05:08:42;1.80;99.90
25983;DHT22;13773;48.868;10.730;2023-12-22T05:11:08;1.90;99.90
25983;DHT22;13773;48.868;10.730;2023-12-22T05:13:34;1.90;99.90
25983;DHT22;13773;48.868;10.730;2023-12-22T05:15:59;1.90;99.90
25983;DHT22;13773;48.868;10.730;2023-12-22T05:18:25;1.90;99.90
25983;DHT22;13773;48.868;10.730;2023-12-22T05:20:51;2.40;99.90
25983;DHT22;13773;48.868;10.730;2023-12-22T05:23:19;2.10;99.90
25983;DHT22;13773;48.868;10.730;2023-12-22T05:25:44;2.00;99.90
25983;DHT22;13773;48.868;10.730;2023-12-22T05:28:10;2.30;99.90
25983;DHT22;13773;48.868;10.730;2023-12-22T05:30:36;2.10;99.90
25983;DHT22;13773;48.868;10.730;2023-12-22T05:33:01;2.60;99.90
25983;DHT22;13773;48.868;10.730;2023-12-22T05:35:27;2.20;99.90
25983;DHT22;13773;48.868;10.730;2023-12-22T05:37:53;2.10;99.90
25983;DHT22;13773;48.868;10.730;2023-12-22T05:40:18;2.10;99.90
25983;DHT22;13773;48.868;10.730;2023-12-22T05:42:44;1.90;99.90
25983;DHT22;13773;48.868;10.730;2023-12-22T05:45:10;1.80;99.90
25983;DHT22;13773;48.868;10.730;2023-12-22T05:47:36;1.80;99.90
25983;DHT22;13773;48.868;10.730;2023-12-22T05:50:03;1.70;99.90
25983;DHT22;13773;48.868;10.730;2023-12-22T05:52:29;1.60;99.90
25983;DHT22;13773;48.868;10.730;2023-12-22T05:54:55;1.60;99.90
25983;DHT22;13773;48.868;10.730;2023-12-22T05:57:20;1.70;99.90
25983;DHT22;13773;48.868;10.730;2023-12-22T05:59:46;1.80;99.90
25983;DHT22;13773;48.868;10.730;2023-12-22T06:02:12;2.00;99.90
25983;DHT22;13773;48.868;10.730;2023-12-22T06:04:38;2.00;99.90
25983;DHT22;13773;48.868;10.730;2023-12-22T06:07:04;2.50;99.90
25983;DHT22;13773;48.868;10.730;2023-12-22T06:09:30;2.10;99.90
25983;DHT22;13773;48.868;10.730;2023-12-22T06:11:55;2.10;99.90
25983;DHT22;13773;48.868;10.730;2023-12-22T06:14:21;2.10;99.90
25983;DHT22;13773;48.868;10.730;2023-12-22T06:16:47;2.10;99.90
25983;DHT22;13773;48.868;10.730;2023-12-22T06:19:13;2.00;99.90
25983;DHT22;13773;48.868;10.730;2023-12-22T06:21:39;2.00;99.90
25983;DHT22;13773;48.868;10.730;2023-12-22T06:24:06;1.90;99.90
25983;DHT22;13773;48.868;10.730;2023-12-22T06:26:33;1.90;99.90
25983;DHT22;13773;48.868;10.730;2023-12-22T06:29:00;1.90;99.90
25983;DHT22;13773;48.868;10.730;2023-12-22T06:31:29;1.90;99.90
25983;DHT22;13773;48.868;10.730;2023-12-22T06:33:59;2.30;99.90
25983;DHT22;13773;48.868;10.730;2023-12-22T06:36:28;2.30;99.90
25983;DHT22;13773;48.868;10.730;2023-12-22T06:38:55;2.40;99.90
25983;DHT22;13773;48.868;10.730;2023-12-22T06:41:22;1.80;99.90
25983;DHT22;13773;48.868;10.730;2023-12-22T06:43:48;2.00;99.90
25983;DHT22;13773;48.868;10.730;2023-12-22T06:46:17;2.00;99.90
25983;DHT22;13773;48.868;10.730;2023-12-22T06:48:43;2.10;99.90
25983;DHT22;13773;48.868;10.730;2023-12-22T06:51:29;2.40;99.90
25983;DHT22;13773;48.868;10.730;2023-12-22T06:54:01;2.10;99.90
25983;DHT22;13773;48.868;10.730;2023-12-22T06:56:28;2.20;99.90
25983;DHT22;13773;48.868;10.730;2023-12-22T06:58:56;2.40;99.90
25983;DHT22;13773;48.868;10.730;2023-12-22T07:01:31;2.90;99.90
25983;DHT22;13773;48.868;10.730;2023-12-22T07:03:58;2.60;99.90
25983;DHT22;13773;48.868;10.730;2023-12-22T07:06:29;2.70;99.90
25983;DHT22;13773;48.868;10.730;2023-12-22T07:11:52;2.10;99.90
25983;DHT22;13773;48.868;10.730;2023-12-22T07:14:21;1.90;99.90
25983;DHT22;13773;48.868;10.730;2023-12-22T07:16:47;1.90;99.90
25983;DHT22;13773;48.868;10.730;2023-12-22T07:19:13;1.90;99.90
25983;DHT22;13773;48.868;10.730;2023-12-22T07:21:42;1.90;99.90
25983;DHT22;13773;48.868;10.730;2023-12-22T07:24:08;1.90;99.90
25983;DHT22;13773;48.868;10.730;2023-12-22T07:26:33;2.10;99.90
25983;DHT22;13773;48.868;10.730;2023-12-22T07:28:59;2.10;99.90
25983;DHT22;13773;48.868;10.730;2023-12-22T07:31:25;2.20;99.90
25983;DHT22;13773;48.868;10.730;2023-12-22T07:33:52;2.20;99.90
25983;DHT22;13773;48.868;10.730;2023-12-22T07:36:18;2.30;99.90
25983;DHT22;13773;48.868;10.730;2023-12-22T07:38:47;2.30;99.90
25983;DHT22;13773;48.868;10.730;2023-12-22T07:41:12;2.30;99.90
25983;DHT22;13773;48.868;10.730;2023-12-22T07:43:38;2.40;99.90
25983;DHT22;13773;48.868;10.730;2023-12-22T07:46:04;4.20;99.90
25983;DHT22;13773;48.868;10.730;2023-12-22T07:48:29;2.70;99.90
25983;DHT22;13773;48.868;10.730;2023-12-22T07:50:55;2.50;99.90
25983;DHT22;13773;48.868;10.730;2023-12-22T07:53:21;2.60;99.90
25983;DHT22;13773;48.868;10.730;2023-12-22T07:55:46;2.80;99.90
25983;DHT22;13773;48.868;10.730;2023-12-22T07:58:13;2.90;99.90
25983;DHT22;13773;48.868;10.730;2023-12-22T08:00:39;3.50;99.90
25983;DHT22;13773;48.868;10.730;2023-12-22T08:03:04;3.10;99.90
25983;DHT22;13773;48.868;10.730;2023-12-22T08:05:30;3.10;99.90
25983;DHT22;13773;48.868;10.730;2023-12-22T08:07:56;3.10;99.90
25983;DHT22;13773;48.868;10.730;2023-12-22T08:10:21;3.10;99.90
25983;DHT22;13773;48.868;10.730;2023-12-22T08:12:47;3.20;99.90
25983;DHT22;13773;48.868;10.730;2023-12-22T08:15:13;3.20;99.90
25983;DHT22;13773;48.868;10.730;2023-12-22T08:17:51;3.20;99.90
25983;DHT22;13773;48.868;10.730;2023-12-22T08:20:20;3.20;99.90
25983;DHT22;13773;48.868;10.730;2023-12-22T08:22:47;3.30;99.90
25983;DHT22;13773;48.868;10.730;2023-12-22T08:25:13;3.20;99.90
25983;DHT22;13773;48.868;10.730;2023-12-22T08:27:39;3.20;99.90
25983;DHT22;13773;48.868;10.730;2023-12-22T08:30:07;3.20;99.90
25983;DHT22;13773;48.868;10.730;2023-12-22T08:32:33;3.20;99.90
25983;DHT22;13773;48.868;10.730;2023-12-22T08:34:59;3.20;99.90
25983;DHT22;13773;48.868;10.730;2023-12-22T08:37:24;3.60;99.90
25983;DHT22;13773;48.868;10.730;2023-12-22T08:39:50;3.20;99.90
25983;DHT22;13773;48.868;10.730;2023-12-22T08:42:17;2.90;99.90
25983;DHT22;13773;48.868;10.730;2023-12-22T08:44:42;2.60;99.90
25983;DHT22;13773;48.868;10.730;2023-12-22T08:47:08;2.80;99.90
25983;DHT22;13773;48.868;10.730;2023-12-22T08:49:33;3.40;99.90
25983;DHT22;13773;48.868;10.730;2023-12-22T08:51:59;2.90;99.90
25983;DHT22;13773;48.868;10.730;2023-12-22T08:54:25;3.00;99.90
25983;DHT22;13773;48.868;10.730;2023-12-22T08:56:51;3.00;99.90
25983;DHT22;13773;48.868;10.730;2023-12-22T08:59:18;3.00;99.90
25983;DHT22;13773;48.868;10.730;2023-12-22T09:01:43;3.80;99.90
25983;DHT22;13773;48.868;10.730;2023-12-22T09:04:12;3.30;99.90
25983;DHT22;13773;48.868;10.730;2023-12-22T09:06:38;3.20;99.90
25983;DHT22;13773;48.868;10.730;2023-12-22T09:09:03;3.40;99.90
25983;DHT22;13773;48.868;10.730;2023-12-22T09:11:30;3.50;99.90
25983;DHT22;13773;48.868;10.730;2023-12-22T09:13:55;3.70;99.90
25983;DHT22;13773;48.868;10.730;2023-12-22T09:16:22;3.80;99.90
25983;DHT22;13773;48.868;10.730;2023-12-22T09:18:48;3.90;99.90
25983;DHT22;13773;48.868;10.730;2023-12-22T09:21:13;4.00;99.90
25983;DHT22;13773;48.868;10.730;2023-12-22T09:23:39;4.10;99.90
25983;DHT22;13773;48.868;10.730;2023-12-22T09:26:05;4.20;99.90
25983;DHT22;13773;48.868;10.730;2023-12-22T09:28:30;4.30;99.90
25983;DHT22;13773;48.868;10.730;2023-12-22T09:30:56;4.40;99.90
25983;DHT22;13773;48.868;10.730;2023-12-22T09:33:22;4.40;99.90
25983;DHT22;13773;48.868;10.730;2023-12-22T09:35:48;4.50;99.90
25983;DHT22;13773;48.868;10.730;2023-12-22T09:38:14;4.50;99.90
25983;DHT22;13773;48.868;10.730;2023-12-22T09:40:39;4.60;99.90
25983;DHT22;13773;48.868;10.730;2023-12-22T09:43:07;4.50;99.90
25983;DHT22;13773;48.868;10.730;2023-12-22T09:45:34;4.60;99.90
25983;DHT22;13773;48.868;10.730;2023-12-22T09:48:01;4.60;99.90
25983;DHT22;13773;48.868;10.730;2023-12-22T09:50:27;4.60;99.90
25983;DHT22;13773;48.868;10.730;2023-12-22T09:52:54;4.60;99.90
25983;DHT22;13773;48.868;10.730;2023-12-22T09:55:21;4.70;99.90
25983;DHT22;13773;48.868;10.730;2023-12-22T09:57:48;4.70;99.90
25983;DHT22;13773;48.868;10.730;2023-12-22T10:00:15;4.70;99.90
25983;DHT22;13773;48.868;10.730;2023-12-22T10:02:41;4.80;99.90
25983;DHT22;13773;48.868;10.730;2023-12-22T10:05:11;4.70;99.90
25983;DHT22;13773;48.868;10.730;2023-12-22T10:07:39;4.80;99.90
25983;DHT22;13773;48.868;10.730;2023-12-22T10:10:06;4.80;99.90
25983;DHT22;13773;48.868;10.730;2023-12-22T10:12:34;4.80;99.90
25983;DHT22;13773;48.868;10.730;2023-12-22T10:15:00;4.80;99.90
25983;DHT22;13773;48.868;10.730;2023-12-22T10:17:26;4.80;99.90
25983;DHT22;13773;48.868;10.730;2023-12-22T10:19:52;4.80;99.90
25983;DHT22;13773;48.868;10.730;2023-12-22T10:22:18;4.60;99.90
25983;DHT22;13773;48.868;10.730;2023-12-22T10:24:46;4.50;99.90
25983;DHT22;13773;48.868;10.730;2023-12-22T10:27:14;4.30;99.90
25983;DHT22;13773;48.868;10.730;2023-12-22T10:29:40;4.20;99.90
25983;DHT22;13773;48.868;10.730;2023-12-22T10:32:06;4.20;99.90
25983;DHT22;13773;48.868;10.730;2023-12-22T10:34:33;4.10;99.90
25983;DHT22;13773;48.868;10.730;2023-12-22T10:37:00;4.10;99.90
25983;DHT22;13773;48.868;10.730;2023-12-22T10:39:32;4.00;99.90
25983;DHT22;13773;48.868;10.730;2023-12-22T10:41:59;3.90;99.90
25983;DHT22;13773;48.868;10.730;2023-12-22T10:44:25;3.80;99.90
25983;DHT22;13773;48.868;10.730;2023-12-22T10:46:51;3.80;99.90
25983;DHT22;13773;48.868;10.730;2023-12-22T10:49:18;3.80;99.90
25983;DHT22;13773;48.868;10.730;2023-12-22T10:51:44;4.00;99.90
25983;DHT22;13773;48.868;10.730;2023-12-22T10:54:10;4.00;99.90
25983;DHT22;13773;48.868;10.730;2023-12-22T10:56:36;4.10;99.90
25983;DHT22;13773;48.868;10.730;2023-12-22T10:59:02;4.20;99.90
25983;DHT22;13773;48.868;10.730;2023-12-22T11:01:31;4.40;99.90
25983;DHT22;13773;48.868;10.730;2023-12-22T11:04:06;4.50;99.90
25983;DHT22;13773;48.868;10.730;2023-12-22T11:06:36;4.70;99.90
25983;DHT22;13773;48.868;10.730;2023-12-22T11:09:09;4.80;99.90
25983;DHT22;13773;48.868;10.730;2023-12-22T11:11:37;5.00;99.90
25983;DHT22;13773;48.868;10.730;2023-12-22T11:14:04;5.00;99.90
25983;DHT22;13773;48.868;10.730;2023-12-22T11:16:31;5.00;99.90
25983;DHT22;13773;48.868;10.730;2023-12-22T11:18:59;5.10;99.90
25983;DHT22;13773;48.868;10.730;2023-12-22T11:21:27;5.00;99.90
25983;DHT22;13773;48.868;10.730;2023-12-22T11:23:53;5.00;99.90
25983;DHT22;13773;48.868;10.730;2023-12-22T11:26:21;5.10;99.90
25983;DHT22;13773;48.868;10.730;2023-12-22T11:28:48;5.10;99.90
25983;DHT22;13773;48.868;10.730;2023-12-22T11:31:15;5.10;99.90
25983;DHT22;13773;48.868;10.730;2023-12-22T11:33:47;5.20;99.90
25983;DHT22;13773;48.868;10.730;2023-12-22T11:36:14;5.30;99.90
25983;DHT22;13773;48.868;10.730;2023-12-22T11:38:41;5.30;99.90
25983;DHT22;13773;48.868;10.730;2023-12-22T11:41:14;5.30;99.90
25983;DHT22;13773;48.868;10.730;2023-12-22T11:43:42;5.30;99.90
25983;DHT22;13773;48.868;10.730;2023-12-22T11:46:08;5.30;99.90
25983;DHT22;13773;48.868;10.730;2023-12-22T11:48:34;5.40;99.90
25983;DHT22;13773;48.868;10.730;2023-12-22T11:51:00;5.40;99.90
25983;DHT22;13773;48.868;10.730;2023-12-22T11:53:30;5.40;99.90
25983;DHT22;13773;48.868;10.730;2023-12-22T11:56:05;5.40;99.90
25983;DHT22;13773;48.868;10.730;2023-12-22T11:58:53;5.40;99.90
25983;DHT22;13773;48.868;10.730;2023-12-22T12:01:24;5.40;99.90
25983;DHT22;13773;48.868;10.730;2023-12-22T12:03:58;5.50;99.90
25983;DHT22;13773;48.868;10.730;2023-12-22T12:06:30;5.40;99.90
25983;DHT22;13773;48.868;10.730;2023-12-22T12:08:57;5.50;99.90
25983;DHT22;13773;48.868;10.730;2023-12-22T12:11:24;5.50;99.90
25983;DHT22;13773;48.868;10.730;2023-12-22T12:14:11;5.40;99.90
25983;DHT22;13773;48.868;10.730;2023-12-22T12:16:39;5.40;99.90
25983;DHT22;13773;48.868;10.730;2023-12-22T12:19:08;5.40;99.90
25983;DHT22;13773;48.868;10.730;2023-12-22T12:21:34;5.40;99.90
25983;DHT22;13773;48.868;10.730;2023-12-22T12:23:59;5.40;99.90
25983;DHT22;13773;48.868;10.730;2023-12-22T12:26:25;5.40;99.90
25983;DHT22;13773;48.868;10.730;2023-12-22T12:28:52;5.40;99.90
25983;DHT22;13773;48.868;10.730;2023-12-22T12:31:18;5.40;99.90
25983;DHT22;13773;48.868;10.730;2023-12-22T12:33:44;5.50;99.90
25983;DHT22;13773;48.868;10.730;2023-12-22T12:36:11;5.50;99.90
25983;DHT22;13773;48.868;10.730;2023-12-22T12:39:06;5.50;99.90
25983;DHT22;13773;48.868;10.730;2023-12-22T12:41:41;5.50;99.90
25983;DHT22;13773;48.868;10.730;2023-12-22T12:44:09;5.50;99.90
25983;DHT22;13773;48.868;10.730;2023-12-22T12:46:37;5.50;99.90
25983;DHT22;13773;48.868;10.730;2023-12-22T12:49:06;5.60;99.90
25983;DHT22;13773;48.868;10.730;2023-12-22T12:51:48;5.60;99.90
25983;DHT22;13773;48.868;10.730;2023-12-22T12:54:14;5.60;99.90
25983;DHT22;13773;48.868;10.730;2023-12-22T12:56:44;5.60;99.90
25983;DHT22;13773;48.868;10.730;2023-12-22T12:59:14;5.60;99.90
25983;DHT22;13773;48.868;10.730;2023-12-22T13:01:47;5.60;99.90
25983;DHT22;13773;48.868;10.730;2023-12-22T13:04:14;5.50;99.90
25983;DHT22;13773;48.868;10.730;2023-12-22T13:09:09;5.50;99.90
25983;DHT22;13773;48.868;10.730;2023-12-22T13:11:35;5.40;99.90
25983;DHT22;13773;48.868;10.730;2023-12-22T13:14:01;5.30;99.90
25983;DHT22;13773;48.868;10.730;2023-12-22T13:16:27;5.30;99.90
25983;DHT22;13773;48.868;10.730;2023-12-22T13:18:59;5.20;99.90
25983;DHT22;13773;48.868;10.730;2023-12-22T13:21:26;5.20;99.90
25983;DHT22;13773;48.868;10.730;2023-12-22T13:24:12;5.20;99.90
25983;DHT22;13773;48.868;10.730;2023-12-22T13:26:39;5.20;99.90
25983;DHT22;13773;48.868;10.730;2023-12-22T13:29:06;5.10;99.90
25983;DHT22;13773;48.868;10.730;2023-12-22T13:31:33;5.10;99.90
25983;DHT22;13773;48.868;10.730;2023-12-22T13:33:59;5.10;99.90
25983;DHT22;13773;48.868;10.730;2023-12-22T13:36:25;5.10;99.90
25983;DHT22;13773;48.868;10.730;2023-12-22T13:38:52;5.10;99.90
25983;DHT22;13773;48.868;10.730;2023-12-22T13:41:17;5.10;99.90
25983;DHT22;13773;48.868;10.730;2023-12-22T13:43:43;5.10;99.90
25983;DHT22;13773;48.868;10.730;2023-12-22T13:46:15;7.60;99.90
25983;DHT22;13773;48.868;10.730;2023-12-22T13:48:41;5.10;99.90
25983;DHT22;13773;48.868;10.730;2023-12-22T13:51:07;5.20;99.90
25983;DHT22;13773;48.868;10.730;2023-12-22T13:53:33;5.20;99.90
25983;DHT22;13773;48.868;10.730;2023-12-22T13:56:00;5.20;99.90
25983;DHT22;13773;48.868;10.730;2023-12-22T13:58:26;5.30;99.90
25983;DHT22;13773;48.868;10.730;2023-12-22T14:00:53;5.30;99.90
25983;DHT22;13773;48.868;10.730;2023-12-22T14:03:19;5.30;99.90
25983;DHT22;13773;48.868;10.730;2023-12-22T14:05:48;5.30;99.90
25983;DHT22;13773;48.868;10.730;2023-12-22T14:08:15;5.50;99.90
25983;DHT22;13773;48.868;10.730;2023-12-22T14:10:50;5.50;99.90
25983;DHT22;13773;48.868;10.730;2023-12-22T14:13:16;5.50;99.90
25983;DHT22;13773;48.868;10.730;2023-12-22T14:15:42;5.60;99.90
25983;DHT22;13773;48.868;10.730;2023-12-22T14:18:11;5.60;99.90
25983;DHT22;13773;48.868;10.730;2023-12-22T14:20:36;5.60;99.90
25983;DHT22;13773;48.868;10.730;2023-12-22T14:23:02;5.60;99.90
25983;DHT22;13773;48.868;10.730;2023-12-22T14:25:29;5.60;99.90
25983;DHT22;13773;48.868;10.730;2023-12-22T14:27:55;5.70;99.90
25983;DHT22;13773;48.868;10.730;2023-12-22T14:30:23;5.80;99.90
25983;DHT22;13773;48.868;10.730;2023-12-22T14:32:49;5.80;99.90
25983;DHT22;13773;48.868;10.730;2023-12-22T14:35:15;6.00;99.90
25983;DHT22;13773;48.868;10.730;2023-12-22T14:37:40;6.00;99.90
25983;DHT22;13773;48.868;10.730;2023-12-22T14:40:06;6.00;99.90
25983;DHT22;13773;48.868;10.730;2023-12-22T14:42:32;6.10;99.90
25983;DHT22;13773;48.868;10.730;2023-12-22T14:44:58;6.10;99.90
25983;DHT22;13773;48.868;10.730;2023-12-22T14:47:23;6.10;99.90
25983;DHT22;13773;48.868;10.730;2023-12-22T14:49:49;6.20;99.90
25983;DHT22;13773;48.868;10.730;2023-12-22T14:52:15;6.10;99.90
25983;DHT22;13773;48.868;10.730;2023-12-22T14:54:40;6.20;99.90
25983;DHT22;13773;48.868;10.730;2023-12-22T14:57:06;6.20;99.90
25983;DHT22;13773;48.868;10.730;2023-12-22T14:59:32;6.20;99.90
25983;DHT22;13773;48.868;10.730;2023-12-22T15:01:57;6.20;99.90
25983;DHT22;13773;48.868;10.730;2023-12-22T15:04:23;6.30;99.90
25983;DHT22;13773;48.868;10.730;2023-12-22T15:06:49;6.30;99.90
25983;DHT22;13773;48.868;10.730;2023-12-22T15:09:15;6.50;99.90
25983;DHT22;13773;48.868;10.730;2023-12-22T15:11:46;6.50;99.90
25983;DHT22;13773;48.868;10.730;2023-12-22T15:14:12;6.50;99.90
25983;DHT22;13773;48.868;10.730;2023-12-22T15:16:41;6.60;99.90
25983;DHT22;13773;48.868;10.730;2023-12-22T15:19:10;6.60;99.90
25983;DHT22;13773;48.868;10.730;2023-12-22T15:21:37;6.70;99.90
25983;DHT22;13773;48.868;10.730;2023-12-22T15:24:04;6.70;99.90
25983;DHT22;13773;48.868;10.730;2023-12-22T15:26:30;6.70;99.90
25983;DHT22;13773;48.868;10.730;2023-12-22T15:28:56;6.70;99.90
25983;DHT22;13773;48.868;10.730;2023-12-22T15:31:22;6.60;99.90
25983;DHT22;13773;48.868;10.730;2023-12-22T15:33:47;6.80;99.90
25983;DHT22;13773;48.868;10.730;2023-12-22T15:36:19;6.70;99.90